Time;durP1;ratioP1;P1;durP2;ratioP2;P2;SDS_P1;SDS_P2;PMS_P1;PMS_P2;Temp;Humidity;BMP_temperature;BMP_pressure;BME280_temperature;BME280_humidity;BME280_pressure;Samples;Min_cycle;Max_cycle;Signal;HPM_P1;HPM_P2
2023/06/22 00:00:12;;;;;;;;;45.00;37.50;;;;;26.54;41.51;99616.28;4889330;29;9753;-88
2023/06/22 00:03:02;;;;;;;;;46.50;39.00;;;;;26.45;41.73;99609.78;4871853;29;8974;-87
2023/06/22 00:05:33;;;;;;;;;47.50;39.00;;;;;26.42;42.40;99612.78;4867795;29;9089;-86
2023/06/22 00:08:07;;;;;;;;;41.00;35.50;;;;;26.42;42.34;99612.78;4889698;29;8857;-88
2023/06/22 00:10:52;;;;;;;;;48.50;40.50;;;;;26.35;42.81;99605.34;4887343;29;8883;-86
2023/06/22 00:13:22;;;;;;;;;44.00;37.00;;;;;26.32;42.96;99603.75;4917413;29;9019;-87
2023/06/22 00:15:52;;;;;;;;;48.00;39.75;;;;;26.01;42.74;99598.31;4922869;29;8894;-89
2023/06/22 00:18:27;;;;;;;;;44.50;37.75;;;;;26.02;42.71;99594.66;4920152;29;8861;-89
2023/06/22 00:21:01;;;;;;;;;40.25;35.25;;;;;26.03;42.44;99582.03;4940749;29;8875;-86
2023/06/22 00:23:34;;;;;;;;;44.50;37.50;;;;;25.98;43.08;99595.88;4936297;29;8867;-87
2023/06/22 00:26:06;;;;;;;;;42.25;35.50;;;;;25.98;43.27;99581.56;4919734;29;8901;-85
2023/06/22 00:28:40;;;;;;;;;46.00;38.00;;;;;25.93;43.57;99584.66;4947909;28;8869;-89
2023/06/22 00:31:26;;;;;;;;;43.25;37.75;;;;;25.54;45.04;99572.69;4922119;29;8906;-91
2023/06/22 00:33:57;;;;;;;;;44.75;38.00;;;;;25.02;45.82;99586.72;4936816;28;8950;-86
2023/06/22 00:36:59;;;;;;;;;45.25;37.00;;;;;24.97;45.72;99577.31;4956809;28;9010;-88
2023/06/22 00:39:51;;;;;;;;;40.50;35.25;;;;;24.97;45.66;99582.69;4939118;28;8890;-89
2023/06/22 00:42:21;;;;;;;;;41.50;36.00;;;;;24.98;44.56;99581.69;4936990;29;8933;-88
2023/06/22 00:44:50;;;;;;;;;42.75;35.00;;;;;25.04;44.24;99579.38;4940842;29;9653;-89
2023/06/22 00:47:21;;;;;;;;;38.50;34.25;;;;;24.92;43.84;99577.66;4943257;29;8902;-88
2023/06/22 00:49:52;;;;;;;;;39.25;34.00;;;;;24.84;43.45;99588.19;4945933;28;8868;-89
2023/06/22 00:52:28;;;;;;;;;32.75;31.75;;;;;24.88;42.17;99579.75;4934607;29;8871;-86
2023/06/22 00:55:01;;;;;;;;;34.00;32.00;;;;;24.91;42.34;99576.81;4943673;29;9019;-88
2023/06/22 00:57:55;;;;;;;;;25.00;24.00;;;;;25.00;41.17;99572.56;4922888;28;8903;-86
2023/06/22 01:00:27;;;;;;;;;24.75;24.75;;;;;24.97;39.60;99555.81;4913182;28;8990;-87
2023/06/22 01:03:20;;;;;;;;;26.25;25.00;;;;;25.01;38.18;99557.25;4922796;29;8870;-88
2023/06/22 01:05:52;;;;;;;;;25.00;23.20;;;;;24.92;37.23;99559.72;4908898;29;8989;-88
2023/06/22 01:08:32;;;;;;;;;25.00;21.50;;;;;25.09;38.15;99562.84;4957650;28;8928;-86
2023/06/22 01:11:27;;;;;;;;;21.50;20.75;;;;;25.03;36.90;99550.75;4962126;28;8869;-86
2023/06/22 01:14:01;;;;;;;;;24.00;23.40;;;;;25.03;36.86;99564.22;4966403;28;8839;-87
2023/06/22 01:16:35;;;;;;;;;23.75;23.75;;;;;25.11;37.02;99571.66;4976010;28;8985;-88
2023/06/22 01:19:26;;;;;;;;;26.50;26.50;;;;;25.23;36.50;99569.81;4990214;28;8855;-89
2023/06/22 01:21:57;;;;;;;;;26.75;25.25;;;;;25.13;36.87;99567.00;4931022;28;8911;-88
2023/06/22 01:24:35;;;;;;;;;27.25;25.75;;;;;25.25;36.93;99560.63;4941504;28;8893;-89
2023/06/22 01:27:21;;;;;;;;;26.00;26.00;;;;;25.25;37.68;99560.63;4939517;29;8863;-87
2023/06/22 01:30:00;;;;;;;;;24.25;23.25;;;;;25.24;37.72;99558.06;4995430;28;8896;-87
2023/06/22 01:32:33;;;;;;;;;27.75;27.75;;;;;25.08;38.64;99559.31;5009651;28;8868;-87
2023/06/22 01:35:07;;;;;;;;;27.75;26.50;;;;;25.00;38.57;99551.03;4996895;28;9004;-88
2023/06/22 01:37:39;;;;;;;;;27.50;27.50;;;;;24.84;38.71;99548.72;5019871;28;9050;-86
2023/06/22 01:40:10;;;;;;;;;26.00;25.50;;;;;24.67;38.93;99539.28;5016572;28;8880;-85
2023/06/22 01:42:41;;;;;;;;;27.75;26.75;;;;;24.61;39.87;99534.41;4999417;28;8945;-86
2023/06/22 01:45:18;;;;;;;;;28.75;27.75;;;;;24.61;38.85;99528.19;4985756;28;8897;-86
2023/06/22 01:47:48;;;;;;;;;29.25;27.00;;;;;24.75;39.29;99527.94;4992557;28;8882;-86
2023/06/22 01:50:18;;;;;;;;;28.00;26.75;;;;;24.52;39.85;99527.94;4948743;28;8989;-88
2023/06/22 01:53:27;;;;;;;;;27.25;27.25;;;;;24.73;39.08;99521.84;4921561;29;8847;-86
2023/06/22 01:56:00;;;;;;;;;28.50;26.00;;;;;24.56;39.89;99536.59;4908131;29;8897;-88
2023/06/22 01:59:03;;;;;;;;;24.50;23.25;;;;;24.83;39.50;99536.28;4875765;29;8874;-86
2023/06/22 02:01:41;;;;;;;;;30.00;27.00;;;;;24.92;39.63;99548.97;4882517;29;8993;-90
2023/06/22 02:04:19;;;;;;;;;30.00;29.50;;;;;25.04;39.29;99535.47;4849948;29;8904;-89
2023/06/22 02:06:56;;;;;;;;;26.50;26.50;;;;;25.05;38.63;99543.41;4901065;29;8908;-87
2023/06/22 02:09:30;;;;;;;;;28.00;27.50;;;;;24.81;39.06;99543.59;4883686;29;8874;-87
2023/06/22 02:12:03;;;;;;;;;30.75;29.50;;;;;24.57;40.21;99554.47;4893842;29;8989;-89
2023/06/22 02:14:35;;;;;;;;;24.25;24.25;;;;;24.48;39.50;99542.59;4899677;29;8871;-90
2023/06/22 02:17:07;;;;;;;;;29.75;27.50;;;;;24.58;39.82;99544.56;4893058;29;8907;-87
2023/06/22 02:19:38;;;;;;;;;29.50;27.50;;;;;24.65;39.52;99541.25;4888672;29;9034;-87
2023/06/22 02:22:08;;;;;;;;;26.75;25.75;;;;;24.75;39.79;99549.47;4948751;29;8863;-89
2023/06/22 02:24:38;;;;;;;;;26.50;25.25;;;;;24.88;39.78;99547.47;4966398;28;8954;-89
2023/06/22 02:27:08;;;;;;;;;23.75;23.25;;;;;24.93;38.73;99544.44;4975601;28;9611;-88
2023/06/22 02:29:39;;;;;;;;;29.50;28.00;;;;;24.97;38.54;99540.50;4993521;28;8866;-89
2023/06/22 02:32:12;;;;;;;;;27.25;26.00;;;;;24.76;38.04;99543.13;4994717;28;8882;-87
2023/06/22 02:34:47;;;;;;;;;31.50;29.00;;;;;24.85;37.46;99539.69;4995805;28;8870;-87
2023/06/22 02:37:18;;;;;;;;;44.25;37.00;;;;;24.87;37.88;99547.63;4980484;28;8870;-90
2023/06/22 02:39:49;;;;;;;;;43.00;35.75;;;;;24.97;37.99;99545.06;4982172;28;8897;-88
2023/06/22 02:42:21;;;;;;;;;26.75;25.75;;;;;25.01;38.60;99546.50;5011380;28;8878;-87
2023/06/22 02:44:51;;;;;;;;;29.00;26.00;;;;;25.03;37.84;99541.84;4996105;28;8855;-90
2023/06/22 02:47:24;;;;;;;;;27.25;25.75;;;;;25.06;37.85;99547.00;5004187;28;8872;-89
2023/06/22 02:49:54;;;;;;;;;24.50;24.00;;;;;25.06;37.51;99549.69;5028186;28;8838;-89
2023/06/22 02:52:25;;;;;;;;;25.25;24.00;;;;;25.08;37.10;99545.03;4982904;28;9003;-87
2023/06/22 02:54:55;;;;;;;;;29.00;28.00;;;;;24.67;37.62;99554.56;4997039;28;8870;-89
2023/06/22 02:57:24;;;;;;;;;24.00;24.00;;;;;24.58;37.57;99563.38;4995825;28;8902;-87
2023/06/22 02:59:56;;;;;;;;;28.25;28.00;;;;;24.67;40.39;99590.34;4998840;28;8892;-91
2023/06/22 03:02:27;;;;;;;;;30.25;29.50;;;;;24.66;41.14;99602.09;4980982;28;8874;-87
2023/06/22 03:05:01;;;;;;;;;37.75;33.00;;;;;24.66;40.72;99617.34;5032199;28;8889;-88
2023/06/22 03:07:31;;;;;;;;;29.00;28.75;;;;;24.65;41.02;99629.94;4969696;28;8925;-88
2023/06/22 03:10:01;;;;;;;;;33.50;31.75;;;;;24.30;41.28;99622.81;4930475;28;8882;-90
2023/06/22 03:12:30;;;;;;;;;32.75;31.50;;;;;24.34;41.33;99624.28;4960089;28;9010;-85
2023/06/22 03:15:04;;;;;;;;;39.50;35.25;;;;;24.48;41.25;99625.91;4966557;28;8948;-87
2023/06/22 03:17:35;;;;;;;;;38.50;34.00;;;;;24.53;41.70;99623.72;4961165;28;8887;-88
2023/06/22 03:20:11;;;;;;;;;36.75;33.25;;;;;24.57;42.34;99620.78;4965612;28;8858;-90
2023/06/22 03:22:42;;;;;;;;;30.75;30.25;;;;;24.54;42.54;99611.97;4964754;28;8858;-90
2023/06/22 03:25:13;;;;;;;;;39.25;35.00;;;;;24.66;42.02;99612.84;4963130;28;8859;-89
2023/06/22 03:27:45;;;;;;;;;32.50;30.50;;;;;24.69;42.12;99614.44;4947167;28;8862;-86
2023/06/22 03:30:17;;;;;;;;;37.50;33.50;;;;;24.72;42.61;99622.28;4982027;28;8843;-91
2023/06/22 03:32:51;;;;;;;;;36.25;32.25;;;;;24.37;43.53;99619.66;4949584;28;8876;-87
2023/06/22 03:35:21;;;;;;;;;34.75;31.75;;;;;24.29;43.55;99606.81;4967256;28;8887;-88
2023/06/22 03:37:51;;;;;;;;;37.50;32.50;;;;;24.39;43.32;99604.25;4976365;28;8902;-87
2023/06/22 03:40:21;;;;;;;;;32.75;30.75;;;;;24.52;43.41;99595.13;4972955;28;8884;-89
2023/06/22 03:43:10;;;;;;;;;50.25;42.00;;;;;24.57;43.12;99602.84;4947310;29;8871;-87
2023/06/22 03:45:45;;;;;;;;;41.75;36.00;;;;;24.54;43.23;99595.00;4945981;28;8963;-88
2023/06/22 03:48:18;;;;;;;;;30.75;30.00;;;;;24.61;42.89;99603.44;4944483;28;8887;-88
2023/06/22 03:50:48;;;;;;;;;30.25;29.50;;;;;24.56;42.98;99598.41;4974510;28;9701;-85
2023/06/22 03:53:18;;;;;;;;;30.50;29.75;;;;;24.54;43.11;99611.97;4960253;28;8960;-88
2023/06/22 03:55:51;;;;;;;;;29.00;26.25;;;;;24.57;43.32;99602.84;4940205;28;8907;-87
2023/06/22 03:58:22;;;;;;;;;29.75;29.00;;;;;24.41;43.68;99600.47;4919624;29;8989;-88
2023/06/22 04:00:56;;;;;;;;;33.00;31.00;;;;;24.54;42.92;99605.75;4906203;29;8890;-87
2023/06/22 04:03:26;;;;;;;;;29.25;29.25;;;;;24.72;42.48;99606.13;4925651;29;9467;-86
2023/06/22 04:05:56;;;;;;;;;33.00;31.25;;;;;24.76;41.85;99609.47;4958269;28;9010;-86
2023/06/22 04:08:26;;;;;;;;;37.00;33.00;;;;;24.74;41.85;99620.34;4965503;28;8891;-85
2023/06/22 04:10:56;;;;;;;;;40.00;34.75;;;;;24.87;41.40;99617.53;4962670;28;9029;-86
2023/06/22 04:13:25;;;;;;;;;34.25;31.75;;;;;24.86;41.55;99624.72;4943769;29;8847;-88
2023/06/22 04:15:54;;;;;;;;;28.25;25.75;;;;;24.79;41.47;99612.75;4921781;29;8852;-87
2023/06/22 04:18:24;;;;;;;;;29.25;27.25;;;;;24.78;41.80;99612.91;4921304;29;8866;-88
2023/06/22 04:20:56;;;;;;;;;24.75;24.75;;;;;24.88;41.62;99612.00;4952150;28;9036;-85
2023/06/22 04:23:26;;;;;;;;;27.50;25.50;;;;;24.96;41.60;99616.78;4979645;28;8883;-88
2023/06/22 04:25:57;;;;;;;;;25.00;24.25;;;;;25.06;41.28;99619.59;4963224;28;8936;-85
2023/06/22 04:28:29;;;;;;;;;24.75;24.00;;;;;25.07;41.35;99611.38;4963458;28;9001;-84
2023/06/22 04:31:02;;;;;;;;;26.75;25.50;;;;;25.09;41.05;99622.03;5003367;28;8893;-84
2023/06/22 04:33:32;;;;;;;;;27.40;26.00;;;;;25.19;41.14;99619.44;5026947;28;8851;-86
2023/06/22 04:36:03;;;;;;;;;25.50;23.75;;;;;25.24;40.72;99617.25;5035748;28;8863;-87
2023/06/22 04:38:33;;;;;;;;;23.75;22.75;;;;;25.25;40.25;99617.13;5029859;28;8887;-86
2023/06/22 04:41:04;;;;;;;;;23.60;21.60;;;;;25.28;40.13;99605.25;5014696;28;8859;-85
2023/06/22 04:43:37;;;;;;;;;27.75;26.00;;;;;25.20;40.36;99600.50;5031886;28;8899;-87
2023/06/22 04:46:06;;;;;;;;;23.40;22.00;;;;;25.29;40.00;99599.75;4974401;28;8868;-86
2023/06/22 04:48:39;;;;;;;;;27.00;25.75;;;;;25.39;40.06;99599.88;4974303;28;8896;-88
2023/06/22 04:51:15;;;;;;;;;24.25;23.00;;;;;25.48;39.86;99609.03;4982207;28;8857;-86
2023/06/22 04:53:44;;;;;;;;;21.80;21.80;;;;;25.55;39.53;99607.56;4959107;28;8880;-84
2023/06/22 04:56:15;;;;;;;;;21.60;19.60;;;;;25.80;39.15;99608.19;4893552;28;9690;-85
2023/06/22 04:58:45;;;;;;;;;25.20;23.80;;;;;25.95;38.94;99617.69;4950606;28;9662;-85
2023/06/22 05:01:14;;;;;;;;;23.20;21.80;;;;;26.12;38.96;99618.13;4954292;28;8920;-86
2023/06/22 05:03:43;;;;;;;;;22.80;22.80;;;;;26.29;38.35;99618.34;4970927;28;8862;-87
2023/06/22 05:06:15;;;;;;;;;26.40;25.00;;;;;26.51;37.51;99624.59;4969851;28;8851;-87
2023/06/22 05:08:45;;;;;;;;;21.20;20.20;;;;;26.68;37.03;99617.75;4986403;28;8858;-84
2023/06/22 05:11:15;;;;;;;;;20.80;20.20;;;;;26.89;36.73;99627.63;4970327;28;8867;-85
2023/06/22 05:13:46;;;;;;;;;23.20;22.80;;;;;27.06;36.24;99637.81;4969782;28;8854;-85
2023/06/22 05:16:15;;;;;;;;;23.00;22.40;;;;;27.23;35.77;99634.47;4988094;28;8847;-86
2023/06/22 05:18:44;;;;;;;;;21.00;20.40;;;;;27.37;35.43;99626.97;4992088;28;8916;-86
2023/06/22 05:21:15;;;;;;;;;22.25;21.50;;;;;27.52;35.56;99630.13;4994159;28;8881;-84
2023/06/22 05:23:45;;;;;;;;;20.20;19.40;;;;;27.59;34.98;99629.47;5029862;28;9001;-83
2023/06/22 05:26:23;;;;;;;;;27.75;25.00;;;;;27.62;35.18;99628.31;5024774;28;8865;-81
2023/06/22 05:28:57;;;;;;;;;27.25;26.50;;;;;27.76;35.64;99632.44;5021071;28;8954;-83
2023/06/22 05:31:26;;;;;;;;;33.00;28.75;;;;;27.95;35.96;99628.88;5029138;28;8883;-82
2023/06/22 05:33:59;;;;;;;;;28.25;27.00;;;;;27.98;35.91;99631.31;5012189;28;9405;-83
2023/06/22 05:36:45;;;;;;;;;27.00;25.50;;;;;28.00;35.97;99640.97;5011388;28;8860;-85
2023/06/22 05:39:22;;;;;;;;;21.50;20.50;;;;;27.92;36.47;99653.50;4971893;28;8859;-83
2023/06/22 05:42:13;;;;;;;;;25.25;24.50;;;;;27.71;36.36;99648.25;4944796;28;8875;-84
2023/06/22 05:45:14;;;;;;;;;27.50;27.25;;;;;27.76;36.84;99644.13;4951325;28;8967;-87
2023/06/22 05:48:10;;;;;;;;;27.50;27.50;;;;;27.94;36.77;99649.66;4957560;28;8974;-84
2023/06/22 05:50:40;;;;;;;;;33.00;31.00;;;;;28.11;36.28;99648.13;4916541;29;8945;-86
2023/06/22 05:53:11;;;;;;;;;26.50;25.00;;;;;28.28;36.06;99646.53;4932649;29;8875;-84
2023/06/22 05:56:02;;;;;;;;;27.75;27.00;;;;;28.51;36.19;99643.50;4894416;29;8929;-83
2023/06/22 05:58:31;;;;;;;;;26.00;25.00;;;;;28.63;35.02;99638.78;4890896;29;9011;-85
2023/06/22 06:01:02;;;;;;;;;26.25;26.25;;;;;28.76;35.39;99647.44;4891544;29;8956;-86
2023/06/22 06:06:34;;;;;;;;;22.00;22.00;;;;;29.13;33.50;99639.31;4885497;29;8881;-84
2023/06/22 06:09:07;;;;;;;;;23.00;22.00;;;;;29.36;32.95;99628.94;4914450;29;9004;-85
2023/06/22 06:12:03;;;;;;;;;20.00;20.00;;;;;29.40;31.43;99624.09;4912294;29;8857;-85
2023/06/22 06:14:54;;;;;;;;;21.60;20.40;;;;;29.47;31.33;99630.59;4875025;29;8915;-86
2023/06/22 06:17:23;;;;;;;;;27.50;25.75;;;;;29.49;32.70;99630.47;4875724;29;8882;-84
2023/06/22 06:19:53;;;;;;;;;27.00;26.75;;;;;29.59;32.83;99628.53;4879241;29;8863;-84
2023/06/22 06:22:26;;;;;;;;;25.00;24.50;;;;;29.80;32.45;99627.41;4913573;29;9004;-85
2023/06/22 06:24:58;;;;;;;;;25.75;25.00;;;;;29.75;32.07;99628.72;4912423;29;8883;-84
2023/06/22 06:27:29;;;;;;;;;28.50;25.25;;;;;29.78;32.39;99624.84;4898082;29;8847;-84
2023/06/22 06:29:59;;;;;;;;;24.25;23.50;;;;;29.94;30.73;99624.16;4938138;28;8982;-83
2023/06/22 06:32:29;;;;;;;;;29.50;26.25;;;;;30.05;31.25;99623.03;4918221;28;8887;-84
2023/06/22 06:34:58;;;;;;;;;30.00;29.25;;;;;29.92;31.73;99632.44;4953242;28;8887;-83
2023/06/22 06:37:29;;;;;;;;;21.00;20.25;;;;;30.27;30.98;99632.56;4953757;28;8855;-83
2023/06/22 06:40:15;;;;;;;;;27.50;27.25;;;;;30.33;30.41;99626.50;4932558;29;8931;-84
2023/06/22 06:43:20;;;;;;;;;25.75;25.25;;;;;30.28;30.28;99632.41;4932537;29;8867;-86
2023/06/22 06:48:36;;;;;;;;;26.25;23.75;;;;;30.63;29.39;99630.59;4931904;29;8861;-84
2023/06/22 06:51:09;;;;;;;;;21.50;21.50;;;;;30.86;29.23;99627.38;4925206;29;8851;-85
2023/06/22 06:53:41;;;;;;;;;21.25;21.25;;;;;30.92;29.32;99630.28;4915757;29;9031;-83
2023/06/22 06:56:11;;;;;;;;;21.25;21.00;;;;;30.99;27.85;99619.63;4916110;29;8893;-83
2023/06/22 06:58:44;;;;;;;;;25.50;23.50;;;;;31.10;27.77;99632.06;4900226;29;8883;-84
2023/06/22 07:01:14;;;;;;;;;23.50;22.25;;;;;31.07;27.67;99627.81;4895613;29;8871;-83
2023/06/22 07:03:43;;;;;;;;;24.50;22.75;;;;;31.23;27.82;99628.91;4875377;29;8857;-84
2023/06/22 07:06:14;;;;;;;;;20.50;19.25;;;;;31.45;27.53;99620.16;4934050;29;9705;-83
2023/06/22 07:08:44;;;;;;;;;21.75;21.75;;;;;31.41;26.98;99624.22;4914643;29;8854;-87
2023/06/22 07:11:14;;;;;;;;;25.00;24.33;;;;;31.51;27.80;99625.94;4915346;29;8873;-85
2023/06/22 07:13:43;;;;;;;;;22.00;21.25;;;;;31.39;27.95;99631.69;4939189;28;8943;-84
2023/06/22 07:16:12;;;;;;;;;24.50;24.50;;;;;31.57;27.47;99625.28;4975688;28;8892;-85
2023/06/22 07:18:42;;;;;;;;;20.75;20.75;;;;;31.83;27.39;99627.88;4985680;28;8840;-85
2023/06/22 07:21:11;;;;;;;;;27.00;25.50;;;;;31.76;27.10;99630.41;4981034;28;8887;-84
2023/06/22 07:23:40;;;;;;;;;19.50;19.50;;;;;31.89;26.05;99627.22;4955506;28;8876;-83
2023/06/22 07:26:09;;;;;;;;;18.75;17.75;;;;;31.60;26.60;99624.91;4954966;28;8853;-85
2023/06/22 07:28:40;;;;;;;;;17.75;17.75;;;;;31.52;26.76;99628.47;4972034;28;8900;-85
2023/06/22 07:31:09;;;;;;;;;21.75;21.75;;;;;31.80;26.94;99634.50;4972689;28;9813;-84
2023/06/22 07:33:40;;;;;;;;;22.50;22.00;;;;;32.01;27.04;99639.44;4992353;28;8872;-84
2023/06/22 07:36:08;;;;;;;;;21.00;20.50;;;;;32.26;26.71;99636.72;4973571;28;8887;-83
2023/06/22 07:38:38;;;;;;;;;21.25;20.00;;;;;32.35;25.76;99632.16;4990033;28;8860;-83
2023/06/22 07:41:07;;;;;;;;;25.50;24.25;;;;;32.47;25.36;99638.94;4973631;28;8988;-85
2023/06/22 07:43:36;;;;;;;;;29.50;27.25;;;;;32.26;25.27;99632.16;4973001;28;8969;-83
2023/06/22 07:46:07;;;;;;;;;19.25;19.25;;;;;32.50;25.41;99626.84;4976596;28;8969;-83
2023/06/22 07:48:39;;;;;;;;;20.00;20.00;;;;;32.47;25.40;99628.06;4993131;28;8879;-85
2023/06/22 07:51:08;;;;;;;;;26.00;24.00;;;;;32.59;26.12;99628.53;5023322;28;8861;-84
2023/06/22 07:53:37;;;;;;;;;22.50;21.00;;;;;32.50;25.98;99630.41;5011617;28;8901;-85
2023/06/22 07:56:07;;;;;;;;;21.25;20.50;;;;;32.58;25.65;99627.69;5012112;28;8941;-84
2023/06/22 07:58:36;;;;;;;;;22.25;21.50;;;;;32.77;26.06;99631.94;5027827;28;8918;-83
2023/06/22 08:01:07;;;;;;;;;20.50;20.50;;;;;32.89;26.34;99637.84;5030278;28;8868;-83
2023/06/22 08:03:40;;;;;;;;;21.00;20.25;;;;;32.81;25.99;99635.16;5032356;28;8884;-85
2023/06/22 08:06:10;;;;;;;;;22.75;21.75;;;;;32.86;26.33;99632.72;4993514;28;8878;-84
2023/06/22 08:08:40;;;;;;;;;22.75;21.75;;;;;32.38;27.08;99637.25;5010898;28;9588;-84
2023/06/22 08:11:08;;;;;;;;;22.75;21.75;;;;;32.02;27.55;99643.88;5014499;28;8839;-83
2023/06/22 08:13:37;;;;;;;;;21.75;20.25;;;;;32.34;27.63;99641.34;5021463;28;8858;-80
2023/06/22 08:16:08;;;;;;;;;23.00;23.00;;;;;31.60;27.88;99643.94;4976193;28;8847;-83
2023/06/22 08:18:37;;;;;;;;;21.75;21.75;;;;;31.92;26.97;99642.31;4918582;29;8863;-84
2023/06/22 08:21:11;;;;;;;;;20.50;20.00;;;;;31.62;27.38;99644.66;4926545;29;8873;-83
2023/06/22 08:23:40;;;;;;;;;23.75;21.00;;;;;30.75;28.49;99654.78;4914819;29;8853;-84
2023/06/22 08:26:10;;;;;;;;;20.00;20.00;;;;;30.02;29.45;99653.19;4918348;29;8853;-81
2023/06/22 08:28:42;;;;;;;;;22.50;22.50;;;;;30.83;28.78;99663.00;4930618;29;8873;-82
2023/06/22 08:31:13;;;;;;;;;22.00;22.00;;;;;31.25;27.96;99659.47;4913931;29;8849;-83
2023/06/22 08:33:45;;;;;;;;;21.50;20.75;;;;;31.11;27.24;99655.50;4912630;29;8931;-83
2023/06/22 08:36:18;;;;;;;;;19.00;19.00;;;;;31.48;27.62;99646.97;4913126;29;8893;-84
2023/06/22 08:38:50;;;;;;;;;21.00;20.00;;;;;31.57;26.94;99649.72;4931893;29;8977;-84
2023/06/22 08:41:20;;;;;;;;;18.00;17.25;;;;;31.20;27.95;99649.13;4931575;29;8870;-84
2023/06/22 08:43:49;;;;;;;;;20.00;20.00;;;;;31.65;27.55;99655.16;4916176;29;9669;-84
2023/06/22 08:46:23;;;;;;;;;19.25;18.50;;;;;31.91;26.80;99651.50;4934703;28;8839;-83
2023/06/22 08:48:52;;;;;;;;;21.00;21.00;;;;;31.75;26.97;99645.03;4970188;28;8882;-84
2023/06/22 08:51:21;;;;;;;;;22.25;21.75;;;;;32.02;26.08;99640.31;4941683;28;8859;-84
2023/06/22 08:53:51;;;;;;;;;20.75;20.00;;;;;32.17;26.19;99645.94;5030396;28;8860;-84
2023/06/22 08:56:19;;;;;;;;;20.75;18.75;;;;;32.26;25.71;99642.16;5029948;28;8906;-84
2023/06/22 08:58:48;;;;;;;;;19.75;18.50;;;;;31.91;26.20;99641.47;5030943;28;8836;-83
2023/06/22 09:01:19;;;;;;;;;22.00;19.67;;;;;32.24;25.44;99636.94;5031182;28;8859;-84
2023/06/22 09:03:54;;;;;;;;;23.75;22.50;;;;;32.04;26.87;99640.97;5029733;28;8859;-84
2023/06/22 09:06:23;;;;;;;;;23.75;23.75;;;;;30.79;28.13;99643.47;5018368;28;8884;-83
2023/06/22 09:08:52;;;;;;;;;24.75;24.25;;;;;30.25;28.13;99631.88;5022388;28;8856;-83
2023/06/22 09:11:21;;;;;;;;;19.75;19.00;;;;;30.17;29.08;99635.34;5034971;28;8852;-84
2023/06/22 09:13:51;;;;;;;;;24.75;21.75;;;;;30.72;27.80;99628.81;5029523;28;8848;-84
2023/06/22 09:16:22;;;;;;;;;21.25;20.00;;;;;31.25;27.89;99637.75;5046481;28;8856;-84
2023/06/22 09:18:51;;;;;;;;;21.00;19.75;;;;;31.62;26.53;99629.19;4997222;28;8945;-84
2023/06/22 09:21:20;;;;;;;;;20.25;20.00;;;;;31.97;26.20;99638.06;5032466;28;8852;-84
2023/06/22 09:23:51;;;;;;;;;18.50;18.50;;;;;32.20;25.14;99638.25;5033017;28;8875;-84
2023/06/22 09:26:20;;;;;;;;;19.00;19.00;;;;;32.39;25.32;99644.38;5030198;28;8859;-83
2023/06/22 09:28:49;;;;;;;;;21.00;21.00;;;;;32.76;24.80;99645.72;5013110;28;8856;-83
2023/06/22 09:31:25;;;;;;;;;22.50;21.50;;;;;32.90;24.51;99650.41;5030210;28;8860;-83
2023/06/22 09:33:56;;;;;;;;;19.67;19.67;;;;;33.16;24.06;99643.88;5029190;28;8852;-83
2023/06/22 09:36:25;;;;;;;;;22.50;22.50;;;;;33.42;23.88;99640.84;4978078;28;8840;-84
2023/06/22 09:38:58;;;;;;;;;18.00;18.00;;;;;33.49;23.39;99644.56;5029250;28;8902;-84
2023/06/22 09:41:27;;;;;;;;;21.50;19.25;;;;;33.64;23.06;99638.34;5029184;28;8876;-84
2023/06/22 09:43:56;;;;;;;;;20.50;20.50;;;;;33.82;23.56;99648.97;5029356;28;8867;-84
2023/06/22 09:46:26;;;;;;;;;21.25;21.25;;;;;33.90;23.66;99657.09;5011271;28;8901;-83
2023/06/22 09:48:56;;;;;;;;;22.75;21.50;;;;;33.98;23.72;99655.16;5027738;28;8853;-83
2023/06/22 09:51:25;;;;;;;;;21.50;20.75;;;;;34.26;23.89;99653.75;5011987;28;8879;-84
2023/06/22 09:53:54;;;;;;;;;23.75;23.75;;;;;34.22;23.26;99645.09;5029731;28;8864;-83
2023/06/22 09:56:23;;;;;;;;;24.25;23.25;;;;;34.38;23.97;99647.69;5029973;28;8971;-84
2023/06/22 09:58:55;;;;;;;;;24.25;23.25;;;;;34.22;24.49;99652.44;5013282;28;8840;-84
2023/06/22 10:01:41;;;;;;;;;21.50;21.00;;;;;34.41;24.46;99649.19;5038353;28;8859;-81
2023/06/22 10:04:11;;;;;;;;;21.25;21.25;;;;;34.48;24.26;99650.16;5046388;28;9000;-82
2023/06/22 10:06:40;;;;;;;;;27.25;24.25;;;;;34.49;24.45;99645.53;5035306;28;9003;-83
2023/06/22 10:09:29;;;;;;;;;18.00;17.50;;;;;34.42;24.41;99650.88;5006724;28;9007;-85
2023/06/22 10:11:58;;;;;;;;;25.50;23.00;;;;;34.53;24.28;99646.88;4988467;28;9046;-84
2023/06/22 10:14:29;;;;;;;;;21.50;20.75;;;;;34.62;24.39;99643.00;4993985;28;8881;-84
2023/06/22 10:16:58;;;;;;;;;21.00;21.00;;;;;34.58;24.36;99641.69;4953767;28;8904;-83
2023/06/22 10:19:30;;;;;;;;;21.00;21.00;;;;;34.65;23.80;99631.72;4940639;28;8920;-83
2023/06/22 10:21:59;;;;;;;;;20.00;19.50;;;;;34.70;23.14;99633.88;4986493;28;8878;-83
2023/06/22 10:24:28;;;;;;;;;22.00;21.00;;;;;34.69;23.95;99624.84;4970760;28;8899;-85
2023/06/22 10:26:57;;;;;;;;;22.25;22.25;;;;;34.71;23.33;99635.59;4970166;28;9000;-83
2023/06/22 10:29:26;;;;;;;;;21.75;21.50;;;;;34.66;23.48;99627.97;4986591;28;8901;-84
2023/06/22 10:31:55;;;;;;;;;24.00;23.50;;;;;34.71;23.08;99632.88;4987856;28;8898;-84
2023/06/22 10:34:24;;;;;;;;;15.50;15.50;;;;;34.82;23.67;99629.66;4988403;28;8850;-82
2023/06/22 10:36:54;;;;;;;;;18.50;17.50;;;;;34.63;23.37;99622.03;4987160;28;8894;-85
2023/06/22 10:39:23;;;;;;;;;21.00;21.00;;;;;34.82;23.76;99628.81;4955597;28;8965;-82
2023/06/22 10:41:53;;;;;;;;;21.00;21.00;;;;;34.82;23.19;99632.41;4988908;28;8908;-83
2023/06/22 10:44:22;;;;;;;;;24.00;24.00;;;;;34.94;23.62;99622.69;4937987;28;8951;-82
2023/06/22 10:46:51;;;;;;;;;24.50;24.50;;;;;34.94;23.44;99622.69;4971896;28;8887;-85
2023/06/22 10:49:20;;;;;;;;;23.50;22.50;;;;;34.88;23.92;99626.16;4979542;28;8852;-83
2023/06/22 10:51:48;;;;;;;;;20.75;20.75;;;;;34.99;23.62;99622.16;4997254;28;8861;-84
2023/06/22 10:54:21;;;;;;;;;19.75;19.00;;;;;35.08;23.87;99617.44;4989517;28;8857;-83
2023/06/22 10:56:50;;;;;;;;;18.75;18.00;;;;;34.98;23.90;99623.16;4977762;28;8942;-82
2023/06/22 10:59:21;;;;;;;;;23.00;22.00;;;;;35.00;23.53;99620.25;4994605;28;8853;-83
2023/06/22 11:01:49;;;;;;;;;23.00;22.75;;;;;34.99;23.65;99624.03;4941148;28;8880;-84
2023/06/22 11:04:18;;;;;;;;;21.00;19.25;;;;;35.01;23.20;99624.69;4935849;28;8837;-82
2023/06/22 11:06:48;;;;;;;;;19.25;18.25;;;;;34.94;23.78;99624.59;4967900;28;8959;-81
2023/06/22 11:09:20;;;;;;;;;21.75;20.25;;;;;35.09;23.19;99614.50;4968590;28;8911;-83
2023/06/22 11:11:58;;;;;;;;;22.00;21.00;;;;;35.26;22.86;99619.75;4979333;28;8868;-82
2023/06/22 11:14:28;;;;;;;;;20.50;20.50;;;;;35.32;23.45;99610.75;5005946;28;9738;-83
2023/06/22 11:16:57;;;;;;;;;20.00;20.00;;;;;35.45;23.04;99613.69;5025984;28;8854;-82
2023/06/22 11:19:27;;;;;;;;;21.25;20.00;;;;;35.43;23.08;99614.91;5012653;28;8859;-83
2023/06/22 11:21:55;;;;;;;;;24.00;22.50;;;;;35.58;22.75;99612.13;5011746;28;8859;-82
2023/06/22 11:24:24;;;;;;;;;21.50;21.50;;;;;35.63;22.51;99606.94;5008900;28;8850;-82
2023/06/22 11:26:53;;;;;;;;;24.25;21.75;;;;;35.66;22.86;99601.91;5009354;28;8874;-84
2023/06/22 11:29:23;;;;;;;;;21.50;21.00;;;;;35.56;22.71;99604.13;5009386;28;8882;-83
2023/06/22 11:32:06;;;;;;;;;21.50;21.50;;;;;35.78;22.88;99598.69;5009284;28;8881;-82
2023/06/22 11:34:36;;;;;;;;;18.00;18.00;;;;;35.82;22.41;99595.38;5008678;28;8929;-81
2023/06/22 11:37:05;;;;;;;;;22.50;21.00;;;;;36.00;22.42;99602.25;4984691;28;8863;-82
2023/06/22 11:39:34;;;;;;;;;21.75;21.25;;;;;36.05;22.24;99592.41;5031372;28;9719;-83
2023/06/22 11:42:15;;;;;;;;;18.75;18.75;;;;;36.10;22.08;99592.66;5009001;28;8847;-84
2023/06/22 11:44:46;;;;;;;;;21.00;20.50;;;;;36.43;21.80;99594.81;5011045;28;8862;-81
2023/06/22 11:47:14;;;;;;;;;21.25;21.00;;;;;36.61;21.32;99585.22;4977344;28;8940;-81
2023/06/22 11:49:44;;;;;;;;;20.75;19.75;;;;;36.79;20.86;99587.47;5011676;28;8862;-83
2023/06/22 11:52:12;;;;;;;;;20.25;19.00;;;;;36.77;20.36;99578.63;5020314;28;8874;-83
2023/06/22 11:54:41;;;;;;;;;20.50;19.50;;;;;36.88;20.54;99580.78;4990973;28;8893;-82